createdAt,value
2023-03-07T00:01:32.164Z,52.20
2023-03-07T00:03:59.899Z,48.97
2023-03-07T00:06:26.677Z,47.17
2023-03-07T00:09:01.353Z,51.30
2023-03-07T00:11:28.604Z,48.83
2023-03-07T00:13:55.595Z,51.08
2023-03-07T00:16:23.952Z,43.30
2023-03-07T00:18:50.693Z,47.23
2023-03-07T00:21:23.306Z,42.30
2023-03-07T00:23:52.623Z,47.10
2023-03-07T00:26:23.716Z,55.78
2023-03-07T00:28:52.350Z,49.80
2023-03-07T00:31:20.303Z,49.20
2023-03-07T00:33:47.216Z,48.00
2023-03-07T00:36:20.479Z,44.43
2023-03-07T00:38:47.695Z,37.40
2023-03-07T00:41:17.124Z,39.63
2023-03-07T00:43:45.559Z,47.17
2023-03-07T00:46:14.051Z,36.47
2023-03-07T00:48:41.039Z,42.92
2023-03-07T00:51:09.850Z,40.90
2023-03-07T00:53:37.017Z,35.63
2023-03-07T00:56:24.097Z,31.00
2023-03-07T00:58:51.425Z,31.67
2023-03-07T01:01:21.498Z,35.60
2023-03-07T01:03:53.658Z,34.40
2023-03-07T01:06:23.140Z,28.33
2023-03-07T01:08:49.934Z,30.33
2023-03-07T01:11:16.917Z,30.57
2023-03-07T01:13:44.120Z,26.10
2023-03-07T01:16:22.432Z,26.80
2023-03-07T01:18:52.256Z,28.73
2023-03-07T01:21:30.676Z,24.13
2023-03-07T01:23:58.969Z,23.70
2023-03-07T01:26:31.664Z,23.90
2023-03-07T01:29:01.613Z,25.23
2023-03-07T01:31:32.368Z,19.03
2023-03-07T01:34:02.057Z,17.17
2023-03-07T01:36:33.457Z,16.53
2023-03-07T01:39:15.264Z,16.50
2023-03-07T01:41:47.709Z,13.53
2023-03-07T01:44:21.018Z,13.03
2023-03-07T01:46:55.508Z,15.00
2023-03-07T01:49:38.806Z,15.50
2023-03-07T01:52:14.740Z,14.77
2023-03-07T01:54:50.332Z,12.20
2023-03-07T01:57:23.515Z,10.87
2023-03-07T01:59:55.988Z,15.67
2023-03-07T02:02:23.346Z,12.23
2023-03-07T02:04:55.266Z,13.67
2023-03-07T02:07:24.870Z,11.30
2023-03-07T02:09:54.233Z,11.97
2023-03-07T02:12:23.060Z,13.00
2023-03-07T02:14:51.197Z,13.70
2023-03-07T02:17:19.126Z,15.30
2023-03-07T02:20:28.286Z,11.93
2023-03-07T02:22:56.389Z,14.27
2023-03-07T02:25:42.252Z,12.53
2023-03-07T02:28:11.637Z,14.57
2023-03-07T02:30:38.896Z,15.70
2023-03-07T02:33:05.682Z,14.90
2023-03-07T02:35:32.380Z,12.90
2023-03-07T02:38:04.583Z,17.93
2023-03-07T02:40:32.333Z,15.30
2023-03-07T02:43:05.779Z,13.50
2023-03-07T02:45:32.597Z,12.37
2023-03-07T02:47:59.227Z,11.00
2023-03-07T02:50:27.154Z,14.90
2023-03-07T02:52:53.901Z,13.60
2023-03-07T02:55:21.234Z,14.60
2023-03-07T02:57:55.010Z,13.30
2023-03-07T03:00:22.123Z,15.77
2023-03-07T03:02:49.358Z,13.47
2023-03-07T03:05:16.157Z,14.93
2023-03-07T03:07:42.827Z,15.33
2023-03-07T03:10:10.023Z,17.37
2023-03-07T03:12:37.102Z,16.00
2023-03-07T03:15:04.957Z,14.47
2023-03-07T03:17:33.029Z,15.87
2023-03-07T03:19:59.685Z,15.43
2023-03-07T03:22:26.314Z,14.83
2023-03-07T03:24:53.284Z,17.07
2023-03-07T03:27:20.573Z,16.70
2023-03-07T03:29:49.753Z,18.20
2023-03-07T03:32:17.117Z,16.47
2023-03-07T03:34:45.050Z,15.63
2023-03-07T03:37:12.048Z,17.80
2023-03-07T03:39:39.618Z,14.40
2023-03-07T03:42:06.625Z,14.60
2023-03-07T03:44:33.814Z,14.63
2023-03-07T03:47:01.068Z,13.77
2023-03-07T03:49:27.965Z,15.97
2023-03-07T03:51:55.534Z,12.87
2023-03-07T03:54:22.158Z,13.57
2023-03-07T03:56:48.837Z,12.33
2023-03-07T03:59:15.513Z,12.90
2023-03-07T04:01:42.430Z,14.10
2023-03-07T04:04:09.683Z,14.47
2023-03-07T04:06:37.587Z,13.50
2023-03-07T04:09:05.358Z,11.70
2023-03-07T04:11:32.875Z,13.83
2023-03-07T04:13:59.514Z,15.00
2023-03-07T04:16:26.485Z,13.67
2023-03-07T04:18:53.508Z,12.33
2023-03-07T04:21:21.996Z,15.43
2023-03-07T04:23:55.227Z,13.80
2023-03-07T04:26:23.515Z,16.90
2023-03-07T04:28:50.252Z,14.93
2023-03-07T04:31:26.737Z,17.07
2023-03-07T04:33:55.526Z,21.90
2023-03-07T04:36:24.547Z,17.50
2023-03-07T04:38:51.850Z,16.07
2023-03-07T04:41:23.477Z,17.47
2023-03-07T04:43:54.362Z,15.37
2023-03-07T04:46:23.052Z,19.30
2023-03-07T04:48:49.920Z,16.50
2023-03-07T04:51:16.672Z,13.20
2023-03-07T04:53:44.142Z,15.07
2023-03-07T04:56:11.372Z,16.27
2023-03-07T04:58:39.940Z,13.20
2023-03-07T05:01:07.101Z,13.63
2023-03-07T05:03:35.361Z,15.30
2023-03-07T05:06:08.413Z,17.00
2023-03-07T05:08:35.907Z,14.60
2023-03-07T05:11:03.035Z,16.20
2023-03-07T05:13:31.066Z,15.40
2023-03-07T05:15:59.154Z,15.20
2023-03-07T05:18:27.713Z,19.27
2023-03-07T05:20:56.090Z,14.13
2023-03-07T05:23:23.697Z,17.23
2023-03-07T05:25:52.165Z,16.67
2023-03-07T05:28:19.399Z,15.97
2023-03-07T05:30:47.197Z,16.63
2023-03-07T05:33:14.978Z,14.10
2023-03-07T05:35:42.540Z,16.97
2023-03-07T05:38:11.639Z,15.47
2023-03-07T05:40:38.576Z,19.50
2023-03-07T05:43:06.197Z,16.43
2023-03-07T05:45:33.784Z,21.27
2023-03-07T05:48:01.324Z,16.40
2023-03-07T05:50:28.736Z,20.57
2023-03-07T05:52:55.479Z,25.50
2023-03-07T05:55:25.198Z,18.40
2023-03-07T05:57:52.140Z,26.13
2023-03-07T06:00:19.703Z,18.63
2023-03-07T06:02:53.453Z,23.83
2023-03-07T06:05:20.511Z,20.67
2023-03-07T06:07:47.370Z,21.33
2023-03-07T06:10:15.605Z,23.50
2023-03-07T06:12:42.803Z,24.13
2023-03-07T06:15:10.332Z,22.77
2023-03-07T06:17:37.940Z,24.23
2023-03-07T06:20:06.479Z,28.13
2023-03-07T06:22:34.697Z,21.77
2023-03-07T06:25:02.458Z,21.50
2023-03-07T06:27:33.096Z,23.03
2023-03-07T06:29:59.841Z,24.63
2023-03-07T06:32:27.275Z,26.13
2023-03-07T06:34:54.005Z,26.17
2023-03-07T06:37:20.735Z,25.03
2023-03-07T06:39:47.473Z,27.10
2023-03-07T06:42:14.096Z,24.43
2023-03-07T06:44:42.935Z,25.97
2023-03-07T06:47:10.492Z,24.10
2023-03-07T06:49:37.387Z,25.00
2023-03-07T06:52:04.440Z,28.97
2023-03-07T06:54:31.742Z,21.90
2023-03-07T06:56:58.933Z,27.00
2023-03-07T06:59:26.041Z,23.97
2023-03-07T07:01:52.795Z,23.87
2023-03-07T07:04:20.946Z,22.60
2023-03-07T07:06:48.994Z,21.40
2023-03-07T07:09:16.391Z,24.93
2023-03-07T07:11:43.377Z,23.40
2023-03-07T07:14:12.525Z,24.53
2023-03-07T07:16:40.285Z,24.63
2023-03-07T07:19:08.412Z,26.17
2023-03-07T07:21:35.895Z,23.60
2023-03-07T07:24:03.014Z,28.23
2023-03-07T07:26:30.291Z,22.73
2023-03-07T07:28:58.976Z,22.03
2023-03-07T07:31:25.708Z,26.43
2023-03-07T07:33:52.416Z,26.83
2023-03-07T07:36:21.518Z,26.17
2023-03-07T07:38:50.572Z,27.93
2023-03-07T07:41:18.298Z,25.57
2023-03-07T07:43:48.168Z,25.60
2023-03-07T07:46:35.381Z,20.77
2023-03-07T07:49:03.229Z,23.70
2023-03-07T07:51:30.289Z,21.23
2023-03-07T07:53:57.388Z,23.77
2023-03-07T07:56:24.185Z,21.63
2023-03-07T07:58:52.389Z,22.90
2023-03-07T08:01:24.928Z,22.53
2023-03-07T08:03:51.793Z,19.47
2023-03-07T08:06:24.566Z,21.23
2023-03-07T08:08:51.775Z,21.73
2023-03-07T08:11:19.848Z,20.80
2023-03-07T08:13:46.644Z,19.30
2023-03-07T08:16:18.830Z,17.30
2023-03-07T08:18:56.203Z,19.63
2023-03-07T08:21:24.626Z,17.20
2023-03-07T08:23:51.878Z,16.77
2023-03-07T08:26:18.650Z,14.60
2023-03-07T08:28:45.342Z,15.20
2023-03-07T08:31:17.991Z,17.67
2023-03-07T08:33:47.368Z,17.03
2023-03-07T08:36:14.670Z,15.80
2023-03-07T08:38:41.678Z,17.60
2023-03-07T08:41:09.676Z,15.40
2023-03-07T08:43:37.741Z,20.33
2023-03-07T08:46:04.680Z,17.33
2023-03-07T08:48:31.679Z,12.50
2023-03-07T08:51:03.789Z,17.40
2023-03-07T08:53:30.419Z,18.50
2023-03-07T08:55:57.050Z,14.03
2023-03-07T08:58:23.977Z,10.70
2023-03-07T09:00:50.656Z,13.80
2023-03-07T09:03:17.380Z,14.93
2023-03-07T09:05:44.345Z,14.00
2023-03-07T09:08:10.978Z,12.03
2023-03-07T09:10:37.656Z,14.33
2023-03-07T09:13:04.602Z,12.73
2023-03-07T09:15:31.487Z,13.57
2023-03-07T09:17:58.153Z,13.20
2023-03-07T09:20:24.878Z,10.13
2023-03-07T09:22:53.544Z,10.70
2023-03-07T09:25:20.609Z,11.70
2023-03-07T09:27:47.607Z,14.70
2023-03-07T09:30:14.901Z,11.30
2023-03-07T09:32:42.189Z,12.97
2023-03-07T09:35:10.209Z,11.90
2023-03-07T09:37:37.088Z,13.30
2023-03-07T09:40:08.249Z,12.50
2023-03-07T09:43:04.713Z,15.60
2023-03-07T09:45:39.227Z,15.97
2023-03-07T09:48:29.923Z,13.10
2023-03-07T09:51:11.954Z,12.57
2023-03-07T09:53:52.917Z,14.77
2023-03-07T09:56:32.955Z,14.70
2023-03-07T09:59:43.250Z,12.83
2023-03-07T10:02:32.916Z,12.47
2023-03-07T10:05:08.742Z,13.53
2023-03-07T10:07:36.054Z,14.50
2023-03-07T10:10:07.186Z,15.77
2023-03-07T10:13:04.003Z,16.83
2023-03-07T10:15:47.501Z,11.03
2023-03-07T10:18:50.962Z,14.47
2023-03-07T10:21:44.462Z,17.30
2023-03-07T10:24:28.817Z,14.70
2023-03-07T10:27:06.472Z,15.20
2023-03-07T10:29:46.098Z,15.60
2023-03-07T10:32:37.404Z,14.73
2023-03-07T10:35:32.004Z,19.50
2023-03-07T10:38:29.588Z,16.67
2023-03-07T10:41:21.437Z,15.60
2023-03-07T10:43:49.676Z,15.97
2023-03-07T10:46:27.153Z,16.37
2023-03-07T10:49:14.846Z,14.03
2023-03-07T10:51:53.311Z,13.77
2023-03-07T10:54:30.245Z,17.00
2023-03-07T10:57:09.413Z,10.37
2023-03-07T10:59:38.748Z,11.67
2023-03-07T11:02:34.601Z,11.27
2023-03-07T11:05:02.699Z,15.50
2023-03-07T11:07:35.035Z,11.50
2023-03-07T11:10:23.534Z,12.90
2023-03-07T11:12:50.183Z,20.13
2023-03-07T11:15:24.111Z,14.07
2023-03-07T11:17:52.271Z,11.80
2023-03-07T11:20:24.709Z,11.43
2023-03-07T11:23:13.789Z,11.13
2023-03-07T11:25:40.541Z,11.37
2023-03-07T11:28:35.123Z,11.67
2023-03-07T11:31:31.872Z,10.43
2023-03-07T11:34:15.784Z,9.23
2023-03-07T11:36:48.598Z,11.10
2023-03-07T11:39:52.657Z,11.00
2023-03-07T11:42:31.625Z,13.30
2023-03-07T11:45:24.192Z,13.10
2023-03-07T11:48:00.186Z,12.50
2023-03-07T11:50:30.136Z,13.83
2023-03-07T11:53:22.760Z,13.43
2023-03-07T11:56:24.664Z,15.37
2023-03-07T11:58:58.064Z,13.53
2023-03-07T12:01:52.572Z,11.77
2023-03-07T12:05:00.714Z,11.83
2023-03-07T12:08:03.187Z,11.00
2023-03-07T12:10:47.402Z,10.93
2023-03-07T12:13:16.811Z,11.57
2023-03-07T12:16:04.401Z,11.57
2023-03-07T12:18:53.309Z,11.70
2023-03-07T12:21:35.205Z,11.10
2023-03-07T12:24:07.575Z,10.43
2023-03-07T12:26:42.582Z,11.03
2023-03-07T12:29:36.851Z,10.00
2023-03-07T12:32:20.774Z,7.40
2023-03-07T12:34:57.893Z,8.60
2023-03-07T12:37:34.298Z,8.60
2023-03-07T12:40:13.396Z,9.32
2023-03-07T12:42:57.957Z,7.40
2023-03-07T12:45:27.633Z,6.70
2023-03-07T12:47:54.899Z,7.83
2023-03-07T12:50:36.639Z,6.57
2023-03-07T12:53:22.572Z,5.93
2023-03-07T12:56:19.514Z,4.87
2023-03-07T12:58:56.590Z,5.17
2023-03-07T13:01:36.927Z,7.40
2023-03-07T13:04:16.551Z,9.57
2023-03-07T13:06:44.619Z,5.43
2023-03-07T13:09:42.556Z,4.33
2023-03-07T13:12:24.782Z,3.47
2023-03-07T13:14:52.402Z,4.13
2023-03-07T13:17:31.272Z,4.30
2023-03-07T13:20:00.145Z,4.40
2023-03-07T13:22:26.768Z,4.70
2023-03-07T13:24:54.994Z,5.00
2023-03-07T13:27:26.190Z,7.03
2023-03-07T13:30:08.022Z,6.47
2023-03-07T13:32:54.181Z,5.73
2023-03-07T13:35:38.869Z,4.77
2023-03-07T13:38:14.997Z,5.67
2023-03-07T13:40:45.280Z,7.47
2023-03-07T13:43:27.489Z,6.30
2023-03-07T13:46:00.627Z,5.77
2023-03-07T13:48:27.526Z,10.20
2023-03-07T13:50:54.164Z,6.20
2023-03-07T13:53:35.568Z,8.13
2023-03-07T13:56:14.883Z,12.63
2023-03-07T13:58:47.417Z,17.00
2023-03-07T14:01:19.457Z,31.17
2023-03-07T14:03:53.043Z,12.60
2023-03-07T14:06:25.249Z,49.70
2023-03-07T14:08:54.865Z,8.00
2023-03-07T14:11:33.404Z,8.77
2023-03-07T14:14:33.938Z,6.47
2023-03-07T14:17:29.904Z,8.30
2023-03-07T14:20:01.368Z,9.80
2023-03-07T14:22:43.109Z,8.27
2023-03-07T14:25:12.854Z,10.20
2023-03-07T14:28:00.750Z,9.50
2023-03-07T14:30:31.344Z,9.37
2023-03-07T14:33:00.164Z,9.80
2023-03-07T14:35:53.552Z,8.33
2023-03-07T14:38:24.540Z,8.27
2023-03-07T14:40:57.515Z,9.60
2023-03-07T14:43:43.688Z,9.50
2023-03-07T14:46:27.149Z,8.30
2023-03-07T14:49:05.723Z,9.23
2023-03-07T14:51:36.654Z,11.43
2023-03-07T14:54:13.762Z,9.60
2023-03-07T14:56:40.764Z,21.67
2023-03-07T14:59:12.439Z,13.90
2023-03-07T15:01:48.891Z,14.67
2023-03-07T15:04:28.588Z,13.80
2023-03-07T15:07:01.367Z,15.20
2023-03-07T15:09:29.736Z,10.73
2023-03-07T15:12:16.727Z,9.13
2023-03-07T15:14:57.011Z,10.33
2023-03-07T15:17:30.716Z,9.90
2023-03-07T15:20:16.147Z,9.30
2023-03-07T15:22:43.441Z,13.90
2023-03-07T15:25:25.965Z,13.90
2023-03-07T15:28:05.012Z,12.77
2023-03-07T15:30:34.931Z,12.07
2023-03-07T15:33:25.238Z,9.95
2023-03-07T15:36:13.912Z,9.83
2023-03-07T15:38:41.975Z,8.33
2023-03-07T15:41:25.875Z,9.40
2023-03-07T15:44:11.717Z,9.67
2023-03-07T15:46:50.707Z,8.43
2023-03-07T15:49:42.047Z,8.83
2023-03-07T15:52:26.591Z,9.90
2023-03-07T15:54:56.437Z,13.70
2023-03-07T15:57:31.906Z,12.65
2023-03-07T16:00:15.797Z,16.80
2023-03-07T16:02:48.285Z,11.97
2023-03-07T16:05:24.009Z,22.00
2023-03-07T16:07:52.236Z,17.70
2023-03-07T16:10:20.127Z,16.23
2023-03-07T16:12:48.960Z,15.27
2023-03-07T16:15:17.648Z,22.13
2023-03-07T16:17:44.754Z,12.07
2023-03-07T16:20:23.821Z,9.87
2023-03-07T16:22:50.764Z,12.80
2023-03-07T16:25:17.519Z,12.55
2023-03-07T16:27:56.634Z,15.47
2023-03-07T16:30:25.837Z,9.07
2023-03-07T16:32:52.773Z,14.20
2023-03-07T16:35:21.891Z,11.57
2023-03-07T16:37:48.628Z,15.60
2023-03-07T16:40:16.567Z,13.10
2023-03-07T16:42:45.762Z,16.52
2023-03-07T16:45:21.690Z,11.18
2023-03-07T16:47:51.581Z,18.98
2023-03-07T16:50:21.502Z,20.83
2023-03-07T16:52:48.164Z,25.63
2023-03-07T16:55:16.156Z,15.20
2023-03-07T16:57:45.866Z,16.98
2023-03-07T17:00:18.793Z,13.32
2023-03-07T17:02:46.286Z,14.60
2023-03-07T17:05:21.829Z,12.15
2023-03-07T17:07:48.647Z,12.50
2023-03-07T17:10:15.707Z,10.60
2023-03-07T17:12:43.229Z,16.77
2023-03-07T17:15:20.809Z,17.08
2023-03-07T17:17:47.584Z,11.20
2023-03-07T17:20:17.064Z,12.25
2023-03-07T17:22:44.131Z,9.25
2023-03-07T17:25:10.816Z,10.55
2023-03-07T17:27:41.911Z,12.18
2023-03-07T17:30:14.652Z,12.05
2023-03-07T17:32:41.673Z,11.77
2023-03-07T17:35:09.694Z,11.65
2023-03-07T17:37:36.777Z,13.75
2023-03-07T17:40:09.936Z,12.73
2023-03-07T17:42:41.100Z,16.33
2023-03-07T17:45:09.566Z,18.42
2023-03-07T17:47:36.476Z,16.85
2023-03-07T17:50:05.404Z,27.40
2023-03-07T17:52:33.152Z,20.85
2023-03-07T17:54:59.879Z,15.68
2023-03-07T17:57:27.795Z,24.70
2023-03-07T17:59:55.148Z,20.17
2023-03-07T18:02:22.039Z,20.75
2023-03-07T18:04:48.922Z,19.17
2023-03-07T18:07:18.176Z,19.57
2023-03-07T18:09:44.982Z,21.88
2023-03-07T18:12:11.641Z,22.77
2023-03-07T18:14:38.309Z,17.08
2023-03-07T18:17:05.018Z,15.23
2023-03-07T18:19:32.331Z,17.00
2023-03-07T18:21:59.005Z,13.35
2023-03-07T18:24:29.989Z,14.82
2023-03-07T18:26:59.135Z,16.00
2023-03-07T18:29:27.863Z,13.93
2023-03-07T18:31:54.752Z,12.30
2023-03-07T18:34:22.193Z,16.25
2023-03-07T18:36:51.577Z,13.32
2023-03-07T18:39:19.124Z,11.38
2023-03-07T18:41:46.276Z,12.02
2023-03-07T18:44:13.041Z,13.67
2023-03-07T18:46:39.804Z,13.30
2023-03-07T18:49:06.571Z,12.70
2023-03-07T18:51:33.243Z,14.77
2023-03-07T18:54:01.424Z,15.50
2023-03-07T18:56:29.035Z,16.58
2023-03-07T18:58:58.746Z,28.42
2023-03-07T19:01:31.439Z,14.95
2023-03-07T19:04:02.145Z,15.15
2023-03-07T19:06:36.216Z,15.98
2023-03-07T19:09:03.757Z,21.88
2023-03-07T19:11:30.972Z,22.77
2023-03-07T19:13:57.734Z,20.15
2023-03-07T19:16:29.311Z,21.83
2023-03-07T19:18:56.695Z,25.58
2023-03-07T19:21:25.802Z,34.22
2023-03-07T19:23:53.639Z,29.70
2023-03-07T19:26:21.348Z,34.53
2023-03-07T19:28:50.553Z,10.55
2023-03-07T19:31:21.558Z,34.15
2023-03-07T19:33:49.214Z,23.57
2023-03-07T19:36:20.575Z,32.67
2023-03-07T19:38:49.232Z,33.20
2023-03-07T19:41:18.671Z,30.05
2023-03-07T19:43:45.367Z,24.85
2023-03-07T19:46:14.054Z,19.40
2023-03-07T19:48:41.178Z,23.92
2023-03-07T19:51:19.297Z,21.13
2023-03-07T19:53:47.811Z,23.90
2023-03-07T19:56:19.445Z,23.08
2023-03-07T19:58:46.214Z,21.97
2023-03-07T20:01:15.709Z,20.48
2023-03-07T20:03:42.593Z,20.33
2023-03-07T20:06:14.144Z,25.55
2023-03-07T20:08:40.870Z,17.60
2023-03-07T20:11:16.346Z,21.10
2023-03-07T20:13:45.505Z,19.52
2023-03-07T20:16:13.055Z,21.40
2023-03-07T20:18:39.745Z,22.25
2023-03-07T20:21:12.282Z,25.77
2023-03-07T20:23:39.792Z,17.83
2023-03-07T20:26:09.547Z,19.30
2023-03-07T20:28:36.966Z,19.65
2023-03-07T20:31:10.471Z,17.08
2023-03-07T20:33:39.148Z,16.00
2023-03-07T20:36:08.633Z,16.38
2023-03-07T20:38:37.078Z,22.20
2023-03-07T20:41:06.355Z,21.08
2023-03-07T20:43:33.913Z,17.98
2023-03-07T20:46:06.073Z,15.75
2023-03-07T20:48:33.163Z,13.98
2023-03-07T20:51:18.263Z,13.65
2023-03-07T20:53:45.805Z,13.15
2023-03-07T20:56:12.511Z,13.85
2023-03-07T20:58:39.520Z,21.45
2023-03-07T21:01:06.914Z,17.73
2023-03-07T21:03:33.727Z,18.67
2023-03-07T21:06:02.616Z,17.00
2023-03-07T21:08:32.101Z,19.88
2023-03-07T21:11:05.173Z,23.73
2023-03-07T21:13:35.792Z,14.65
2023-03-07T21:16:09.786Z,23.02
2023-03-07T21:18:37.383Z,26.40
2023-03-07T21:21:08.096Z,28.73
2023-03-07T21:23:35.318Z,47.17
2023-03-07T21:26:10.799Z,36.22
2023-03-07T21:28:38.144Z,21.17
2023-03-07T21:31:12.164Z,25.45
2023-03-07T21:33:42.111Z,22.55
2023-03-07T21:36:10.313Z,19.80
2023-03-07T21:38:38.826Z,20.73
2023-03-07T21:41:06.449Z,20.00
2023-03-07T21:43:33.534Z,23.67
2023-03-07T21:46:08.081Z,27.02
2023-03-07T21:48:34.985Z,22.33
2023-03-07T21:51:02.803Z,19.92
2023-03-07T21:53:30.145Z,23.08
2023-03-07T21:56:00.086Z,24.35
2023-03-07T21:58:27.723Z,26.08
2023-03-07T22:00:56.158Z,31.38
2023-03-07T22:03:27.662Z,32.97
2023-03-07T22:05:56.290Z,31.45
2023-03-07T22:08:24.006Z,38.83
2023-03-07T22:11:00.031Z,30.85
2023-03-07T22:13:32.550Z,30.77
2023-03-07T22:16:01.521Z,27.77
2023-03-07T22:18:28.640Z,30.17
2023-03-07T22:20:55.329Z,29.25
2023-03-07T22:23:23.315Z,31.75
2023-03-07T22:25:50.004Z,31.73
2023-03-07T22:28:19.141Z,30.52
2023-03-07T22:30:49.447Z,35.15
2023-03-07T22:33:16.521Z,36.75
2023-03-07T22:35:43.217Z,32.58
2023-03-07T22:38:10.129Z,32.90
2023-03-07T22:40:39.620Z,34.40
2023-03-07T22:43:06.414Z,30.73
2023-03-07T22:45:33.121Z,41.53
2023-03-07T22:47:59.815Z,39.80
2023-03-07T22:50:26.500Z,36.53
2023-03-07T22:52:54.493Z,33.83
2023-03-07T22:55:21.561Z,35.13
2023-03-07T22:57:48.277Z,38.05
2023-03-07T23:00:15.207Z,33.05
2023-03-07T23:02:41.892Z,27.33
2023-03-07T23:05:08.681Z,33.58
2023-03-07T23:07:35.374Z,32.90
2023-03-07T23:10:02.110Z,33.25
2023-03-07T23:12:28.774Z,28.38
2023-03-07T23:14:55.501Z,29.92
2023-03-07T23:17:22.154Z,26.50
2023-03-07T23:19:51.718Z,31.92
2023-03-07T23:22:18.390Z,27.02
2023-03-07T23:24:45.174Z,31.40
2023-03-07T23:27:11.861Z,33.30
2023-03-07T23:29:38.511Z,32.28
2023-03-07T23:32:05.454Z,30.63
2023-03-07T23:34:32.321Z,25.65
2023-03-07T23:36:58.977Z,28.67
2023-03-07T23:39:25.679Z,32.13
2023-03-07T23:41:52.349Z,32.17
2023-03-07T23:44:19.032Z,32.13
2023-03-07T23:46:45.704Z,35.55
2023-03-07T23:49:12.445Z,33.58
2023-03-07T23:51:39.215Z,36.05
2023-03-07T23:54:05.906Z,36.67
2023-03-07T23:56:32.820Z,35.83
2023-03-07T23:58:59.462Z,36.25
